PWSweather.com
Personal Weather Stations
Station Observations
WARREN
Narre Warren , MelbourneAU

Narre Warren MelbourneAU

Lat: -38.0314269, Lon: 145.3160851

Elevation: 24

Station Type: Digiteck

http://www.aussiedownunder.net/

Latest ConditionsUpdated 9:15:02 AM GMT+10:10 Thursday, Sep 20, 2018
Currently Today's Max Today's Min Today's Average
Temperature 56.7°F13.7°C 57.6°F14.2°C 40.6°F4.8°C 45.0°F7.2°C
Dew Point 42.1°F5.6°C 45.3°F7.4°C 37.7°F3.2°C 40.0°F4.4°C
Winds 2.9 mph WSW4.7 kmh WSW 3.2 mph -5.1 kmh - - 0.6 mph 1.0 kmh
Wind Gusts 9.8 mph15.8 kmh 9.8 mph15.8 kmh - -
Humidity 58% 92% 58% 84%
Pressure 30.12 in1020.0 mb 30.12 in1020.0 mb 30.04 in1017.3 mb -
Hour Temp Dew Point Humidity Winds Wind Gusts Pressure Precip Precip Rate Daily Precip Total
09:15 AM 56.7°F13.7°C 42.1°F5.6°C 58% 2.9 mph WSW4.7 kmh WSW 9.8 mph15.8 kmh 30.12 in1020.0 mb 0.00 in0.0 mm 0.00 in0.0 mm 0.00 in0.0 mm
09:00 AM 57.6°F14.2°C 43.4°F6.3°C 59% 1.7 mph SE2.7 kmh SE 6.0 mph9.7 kmh 30.12 in1020.0 mb 0.00 in0.0 mm 0.00 in0.0 mm 0.00 in0.0 mm
08:45 AM 54.9°F12.7°C 42.1°F5.6°C 62% 3.2 mph WSW5.1 kmh WSW 9.2 mph14.8 kmh 30.12 in1020.0 mb 0.00 in0.0 mm 0.00 in0.0 mm 0.00 in0.0 mm
08:30 AM 54.7°F12.6°C 41.9°F5.5°C 62% 2.7 mph S4.3 kmh S 8.3 mph13.4 kmh 30.12 in1020.0 mb 0.00 in0.0 mm 0.00 in0.0 mm 0.00 in0.0 mm
08:15 AM 54.5°F12.5°C 42.6°F5.9°C 64% 1.6 mph SW2.6 kmh SW 4.5 mph7.2 kmh 30.11 in1019.6 mb 0.00 in0.0 mm 0.00 in0.0 mm 0.00 in0.0 mm
08:00 AM 54.1°F12.3°C 43.0°F6.1°C 66% 1.2 mph WNW1.9 kmh WNW 4.5 mph7.2 kmh 30.11 in1019.6 mb 0.00 in0.0 mm 0.00 in0.0 mm 0.00 in0.0 mm
07:45 AM 52.7°F11.5°C 43.2°F6.2°C 70% 1.2 mph SW1.9 kmh SW 4.5 mph7.2 kmh 30.11 in1019.6 mb 0.00 in0.0 mm 0.00 in0.0 mm 0.00 in0.0 mm
07:30 AM 51.3°F10.7°C 45.3°F7.4°C 80% 0.3 mph ESE0.5 kmh ESE 3.8 mph6.1 kmh 30.10 in1019.3 mb 0.00 in0.0 mm 0.00 in0.0 mm 0.00 in0.0 mm
07:15 AM 47.8°F8.8°C 43.9°F6.6°C 86% 0.3 mph NNW0.5 kmh NNW 3.1 mph5.0 kmh 30.09 in1019.0 mb 0.00 in0.0 mm 0.00 in0.0 mm 0.00 in0.0 mm
07:00 AM 44.8°F7.1°C 41.2°F5.1°C 87% 0.3 mph W0.5 kmh W 2.2 mph3.5 kmh 30.09 in1019.0 mb 0.00 in0.0 mm 0.00 in0.0 mm 0.00 in0.0 mm
06:45 AM 43.3°F6.3°C 40.3°F4.6°C 89% 0.1 mph W0.2 kmh W 2.2 mph3.5 kmh 30.09 in1019.0 mb 0.00 in0.0 mm 0.00 in0.0 mm 0.00 in0.0 mm
06:30 AM 42.6°F5.9°C 39.9°F4.4°C 90% Calm Calm 1.6 mph2.6 kmh 30.09 in1019.0 mb 0.00 in0.0 mm 0.00 in0.0 mm 0.00 in0.0 mm
06:15 AM 42.6°F5.9°C 40.2°F4.6°C 91% 0.6 mph WSW1.0 kmh WSW 3.1 mph5.0 kmh 30.08 in1018.6 mb 0.00 in0.0 mm 0.00 in0.0 mm 0.00 in0.0 mm
06:00 AM 42.1°F5.6°C 39.6°F4.2°C 91% 0.5 mph W0.8 kmh W 3.1 mph5.0 kmh 30.07 in1018.3 mb 0.00 in0.0 mm 0.00 in0.0 mm 0.00 in0.0 mm
05:45 AM 41.9°F5.5°C 39.7°F4.3°C 92% 1.0 mph WNW1.6 kmh WNW 4.5 mph7.2 kmh 30.07 in1018.3 mb 0.00 in0.0 mm 0.00 in0.0 mm 0.00 in0.0 mm
05:30 AM 41.4°F5.2°C 38.9°F3.8°C 91% 0.5 mph WNW0.8 kmh WNW 3.1 mph5.0 kmh 30.06 in1017.9 mb 0.00 in0.0 mm 0.00 in0.0 mm 0.00 in0.0 mm
05:15 AM 40.6°F4.8°C 38.2°F3.4°C 91% 0.1 mph WNW0.2 kmh WNW 2.2 mph3.5 kmh 30.06 in1017.9 mb 0.00 in0.0 mm 0.00 in0.0 mm 0.00 in0.0 mm
05:00 AM 40.6°F4.8°C 38.2°F3.4°C 91% Calm Calm 0.7 mph1.1 kmh 30.06 in1017.9 mb 0.00 in0.0 mm 0.00 in0.0 mm 0.00 in0.0 mm
04:45 AM 41.0°F5.0°C 38.3°F3.5°C 90% 0.2 mph NW0.3 kmh NW 2.2 mph3.5 kmh 30.06 in1017.9 mb 0.00 in0.0 mm 0.00 in0.0 mm 0.00 in0.0 mm
04:30 AM 41.0°F5.0°C 38.0°F3.3°C 89% 0.1 mph NW0.2 kmh NW 3.1 mph5.0 kmh 30.05 in1017.6 mb 0.00 in0.0 mm 0.00 in0.0 mm 0.00 in0.0 mm
04:15 AM 40.8°F4.9°C 37.8°F3.2°C 89% 0.1 mph NW0.2 kmh NW 1.6 mph2.6 kmh 30.05 in1017.6 mb 0.00 in0.0 mm 0.00 in0.0 mm 0.00 in0.0 mm
04:00 AM 41.4°F5.2°C 38.1°F3.4°C 88% 0.1 mph SW0.2 kmh SW 1.6 mph2.6 kmh 30.04 in1017.3 mb 0.00 in0.0 mm 0.00 in0.0 mm 0.00 in0.0 mm
03:45 AM 41.9°F5.5°C 38.3°F3.5°C 87% Calm Calm 1.6 mph2.6 kmh 30.04 in1017.3 mb 0.00 in0.0 mm 0.00 in0.0 mm 0.00 in0.0 mm
03:30 AM 42.4°F5.8°C 39.1°F3.9°C 88% 0.1 mph NW0.2 kmh NW 1.6 mph2.6 kmh 30.04 in1017.3 mb 0.00 in0.0 mm 0.00 in0.0 mm 0.00 in0.0 mm
03:15 AM 42.4°F5.8°C 38.9°F3.8°C 87% 0.2 mph WNW0.3 kmh WNW 3.1 mph5.0 kmh 30.04 in1017.3 mb 0.00 in0.0 mm 0.00 in0.0 mm 0.00 in0.0 mm
03:00 AM 43.2°F6.2°C 39.6°F4.2°C 87% 0.3 mph NW0.5 kmh NW 3.1 mph5.0 kmh 30.04 in1017.3 mb 0.00 in0.0 mm 0.00 in0.0 mm 0.00 in0.0 mm
02:45 AM 43.5°F6.4°C 39.9°F4.4°C 87% 0.5 mph W0.8 kmh W 4.5 mph7.2 kmh 30.05 in1017.6 mb 0.00 in0.0 mm 0.00 in0.0 mm 0.00 in0.0 mm
02:30 AM 43.3°F6.3°C 40.3°F4.6°C 89% 0.8 mph NW1.3 kmh NW 3.8 mph6.1 kmh 30.05 in1017.6 mb 0.00 in0.0 mm 0.00 in0.0 mm 0.00 in0.0 mm
02:15 AM 42.4°F5.8°C 39.7°F4.3°C 90% 0.4 mph WNW0.6 kmh WNW 3.1 mph5.0 kmh 30.05 in1017.6 mb 0.00 in0.0 mm 0.00 in0.0 mm 0.00 in0.0 mm
02:00 AM 41.9°F5.5°C 38.9°F3.8°C 89% 0.1 mph WNW0.2 kmh WNW 2.2 mph3.5 kmh 30.06 in1017.9 mb 0.00 in0.0 mm 0.00 in0.0 mm 0.00 in0.0 mm
01:45 AM 41.7°F5.4°C 38.4°F3.6°C 88% Calm Calm 0.7 mph1.1 kmh 30.07 in1018.3 mb 0.00 in0.0 mm 0.00 in0.0 mm 0.00 in0.0 mm
01:30 AM 41.7°F5.4°C 38.4°F3.6°C 88% Calm Calm 1.6 mph2.6 kmh 30.07 in1018.3 mb 0.00 in0.0 mm 0.00 in0.0 mm 0.00 in0.0 mm
01:15 AM 41.4°F5.2°C 37.8°F3.2°C 87% Calm Calm 0.7 mph1.1 kmh 30.07 in1018.3 mb 0.00 in0.0 mm 0.00 in0.0 mm 0.00 in0.0 mm
01:00 AM 41.5°F5.3°C 37.7°F3.2°C 86% Calm Calm -- 30.07 in1018.3 mb 0.00 in0.0 mm 0.00 in0.0 mm 0.00 in0.0 mm
12:45 AM 42.1°F5.6°C 38.2°F3.4°C 86% Calm Calm 0.7 mph1.1 kmh 30.07 in1018.3 mb 0.00 in0.0 mm 0.00 in0.0 mm 0.00 in0.0 mm
12:30 AM 43.0°F6.1°C 38.8°F3.8°C 85% 0.4 mph S0.6 kmh S 3.8 mph6.1 kmh 30.06 in1017.9 mb 0.00 in0.0 mm 0.00 in0.0 mm 0.00 in0.0 mm
12:15 AM 43.7°F6.5°C 39.8°F4.3°C 86% 0.1 mph WNW0.2 kmh WNW 2.2 mph3.5 kmh 30.06 in1017.9 mb 0.00 in0.0 mm 0.00 in0.0 mm 0.00 in0.0 mm
12:00 AM 44.1°F6.7°C 40.4°F4.7°C 87% 0.8 mph NW1.3 kmh NW 3.1 mph5.0 kmh 30.06 in1017.9 mb 0.00 in0.0 mm 0.00 in0.0 mm 0.00 in0.0 mm